sensor_id;sensor_type;location;lat;lon;timestamp;P1;durP1;ratioP1;P2;durP2;ratioP2
13343;SDS011;6741;48.964;9.406;2022-08-14T00:00:40;3.75;;;3.55;;
13343;SDS011;6741;48.964;9.406;2022-08-14T00:03:07;3.60;;;3.40;;
13343;SDS011;6741;48.964;9.406;2022-08-14T00:05:44;4.40;;;3.30;;
13343;SDS011;6741;48.964;9.406;2022-08-14T00:08:11;4.20;;;3.90;;
13343;SDS011;6741;48.964;9.406;2022-08-14T00:10:38;4.80;;;3.70;;
13343;SDS011;6741;48.964;9.406;2022-08-14T00:13:05;3.83;;;3.53;;
13343;SDS011;6741;48.964;9.406;2022-08-14T00:15:34;4.07;;;3.77;;
13343;SDS011;6741;48.964;9.406;2022-08-14T00:18:04;3.70;;;3.50;;
13343;SDS011;6741;48.964;9.406;2022-08-14T00:20:34;3.50;;;3.30;;
13343;SDS011;6741;48.964;9.406;2022-08-14T00:23:05;4.20;;;3.23;;
13343;SDS011;6741;48.964;9.406;2022-08-14T00:25:32;3.60;;;3.40;;
13343;SDS011;6741;48.964;9.406;2022-08-14T00:28:00;3.90;;;3.60;;
13343;SDS011;6741;48.964;9.406;2022-08-14T00:30:27;3.53;;;3.23;;
13343;SDS011;6741;48.964;9.406;2022-08-14T00:32:54;3.70;;;3.50;;
13343;SDS011;6741;48.964;9.406;2022-08-14T00:35:21;4.37;;;3.60;;
13343;SDS011;6741;48.964;9.406;2022-08-14T00:37:48;3.87;;;3.57;;
13343;SDS011;6741;48.964;9.406;2022-08-14T00:40:17;3.73;;;3.43;;
13343;SDS011;6741;48.964;9.406;2022-08-14T00:42:46;4.63;;;4.23;;
13343;SDS011;6741;48.964;9.406;2022-08-14T00:45:14;4.07;;;3.77;;
13343;SDS011;6741;48.964;9.406;2022-08-14T00:47:42;5.60;;;3.73;;
13343;SDS011;6741;48.964;9.406;2022-08-14T00:50:11;4.57;;;3.77;;
13343;SDS011;6741;48.964;9.406;2022-08-14T00:52:42;4.40;;;4.00;;
13343;SDS011;6741;48.964;9.406;2022-08-14T00:55:10;4.73;;;4.43;;
13343;SDS011;6741;48.964;9.406;2022-08-14T00:57:39;4.50;;;4.20;;
13343;SDS011;6741;48.964;9.406;2022-08-14T01:00:08;4.30;;;4.00;;
13343;SDS011;6741;48.964;9.406;2022-08-14T01:02:38;4.17;;;3.87;;
13343;SDS011;6741;48.964;9.406;2022-08-14T01:05:07;4.27;;;3.87;;
13343;SDS011;6741;48.964;9.406;2022-08-14T01:07:47;4.10;;;3.80;;
13343;SDS011;6741;48.964;9.406;2022-08-14T01:10:16;4.27;;;3.90;;
13343;SDS011;6741;48.964;9.406;2022-08-14T01:12:44;4.07;;;3.77;;
13343;SDS011;6741;48.964;9.406;2022-08-14T01:15:13;3.73;;;3.53;;
13343;SDS011;6741;48.964;9.406;2022-08-14T01:17:45;6.33;;;4.30;;
13343;SDS011;6741;48.964;9.406;2022-08-14T01:20:30;3.80;;;3.50;;
13343;SDS011;6741;48.964;9.406;2022-08-14T01:23:16;4.10;;;3.80;;
13343;SDS011;6741;48.964;9.406;2022-08-14T01:25:43;4.73;;;4.10;;
13343;SDS011;6741;48.964;9.406;2022-08-14T01:28:12;4.00;;;3.70;;
13343;SDS011;6741;48.964;9.406;2022-08-14T01:30:39;4.60;;;4.20;;
13343;SDS011;6741;48.964;9.406;2022-08-14T01:33:07;3.73;;;3.53;;
13343;SDS011;6741;48.964;9.406;2022-08-14T01:35:36;4.03;;;3.73;;
13343;SDS011;6741;48.964;9.406;2022-08-14T01:38:10;4.10;;;3.80;;
13343;SDS011;6741;48.964;9.406;2022-08-14T01:40:40;4.87;;;4.10;;
13343;SDS011;6741;48.964;9.406;2022-08-14T01:43:08;4.53;;;3.70;;
13343;SDS011;6741;48.964;9.406;2022-08-14T01:45:38;4.07;;;3.77;;
13343;SDS011;6741;48.964;9.406;2022-08-14T01:48:05;4.20;;;3.90;;
13343;SDS011;6741;48.964;9.406;2022-08-14T01:50:32;3.90;;;3.60;;
13343;SDS011;6741;48.964;9.406;2022-08-14T01:52:59;4.27;;;3.83;;
13343;SDS011;6741;48.964;9.406;2022-08-14T01:55:27;4.93;;;4.53;;
13343;SDS011;6741;48.964;9.406;2022-08-14T01:57:58;4.73;;;4.37;;
13343;SDS011;6741;48.964;9.406;2022-08-14T02:00:25;4.90;;;4.07;;
13343;SDS011;6741;48.964;9.406;2022-08-14T02:02:54;5.40;;;4.13;;
13343;SDS011;6741;48.964;9.406;2022-08-14T02:05:22;4.27;;;3.97;;
13343;SDS011;6741;48.964;9.406;2022-08-14T02:07:53;4.40;;;4.10;;
13343;SDS011;6741;48.964;9.406;2022-08-14T02:10:20;4.50;;;4.07;;
13343;SDS011;6741;48.964;9.406;2022-08-14T02:12:47;4.73;;;4.43;;
13343;SDS011;6741;48.964;9.406;2022-08-14T02:15:16;4.30;;;4.00;;
13343;SDS011;6741;48.964;9.406;2022-08-14T02:17:45;5.53;;;4.20;;
13343;SDS011;6741;48.964;9.406;2022-08-14T02:20:13;4.37;;;4.07;;
13343;SDS011;6741;48.964;9.406;2022-08-14T02:22:41;4.47;;;4.17;;
13343;SDS011;6741;48.964;9.406;2022-08-14T02:25:09;4.63;;;4.17;;
13343;SDS011;6741;48.964;9.406;2022-08-14T02:27:36;4.20;;;3.80;;
13343;SDS011;6741;48.964;9.406;2022-08-14T02:30:06;4.60;;;4.30;;
13343;SDS011;6741;48.964;9.406;2022-08-14T02:32:35;4.97;;;4.57;;
13343;SDS011;6741;48.964;9.406;2022-08-14T02:35:02;5.07;;;4.67;;
13343;SDS011;6741;48.964;9.406;2022-08-14T02:37:42;4.17;;;3.87;;
13343;SDS011;6741;48.964;9.406;2022-08-14T02:40:09;4.80;;;4.30;;
13343;SDS011;6741;48.964;9.406;2022-08-14T02:42:38;5.33;;;4.83;;
13343;SDS011;6741;48.964;9.406;2022-08-14T02:45:06;4.47;;;4.17;;
13343;SDS011;6741;48.964;9.406;2022-08-14T02:47:35;4.90;;;4.53;;
13343;SDS011;6741;48.964;9.406;2022-08-14T02:50:03;4.20;;;3.90;;
13343;SDS011;6741;48.964;9.406;2022-08-14T02:52:30;4.30;;;4.00;;
13343;SDS011;6741;48.964;9.406;2022-08-14T02:54:58;5.00;;;4.60;;
13343;SDS011;6741;48.964;9.406;2022-08-14T02:57:25;5.27;;;4.73;;
13343;SDS011;6741;48.964;9.406;2022-08-14T02:59:52;4.77;;;4.47;;
13343;SDS011;6741;48.964;9.406;2022-08-14T03:02:20;4.57;;;4.17;;
13343;SDS011;6741;48.964;9.406;2022-08-14T03:04:48;5.03;;;4.70;;
13343;SDS011;6741;48.964;9.406;2022-08-14T03:07:15;4.80;;;4.37;;
13343;SDS011;6741;48.964;9.406;2022-08-14T03:09:42;5.33;;;4.93;;
13343;SDS011;6741;48.964;9.406;2022-08-14T03:12:09;4.80;;;4.50;;
13343;SDS011;6741;48.964;9.406;2022-08-14T03:14:36;5.27;;;4.83;;
13343;SDS011;6741;48.964;9.406;2022-08-14T03:17:07;4.83;;;4.53;;
13343;SDS011;6741;48.964;9.406;2022-08-14T03:19:37;5.87;;;5.20;;
13343;SDS011;6741;48.964;9.406;2022-08-14T03:22:05;5.53;;;5.07;;
13343;SDS011;6741;48.964;9.406;2022-08-14T03:24:32;4.77;;;4.47;;
13343;SDS011;6741;48.964;9.406;2022-08-14T03:27:00;5.07;;;4.67;;
13343;SDS011;6741;48.964;9.406;2022-08-14T03:29:28;5.50;;;5.00;;
13343;SDS011;6741;48.964;9.406;2022-08-14T03:31:55;5.57;;;5.07;;
13343;SDS011;6741;48.964;9.406;2022-08-14T03:34:23;5.50;;;5.10;;
13343;SDS011;6741;48.964;9.406;2022-08-14T03:36:51;5.37;;;4.87;;
13343;SDS011;6741;48.964;9.406;2022-08-14T03:39:20;5.20;;;4.80;;
13343;SDS011;6741;48.964;9.406;2022-08-14T03:41:48;4.90;;;4.40;;
13343;SDS011;6741;48.964;9.406;2022-08-14T03:44:16;4.87;;;4.47;;
13343;SDS011;6741;48.964;9.406;2022-08-14T03:46:43;4.87;;;4.57;;
13343;SDS011;6741;48.964;9.406;2022-08-14T03:49:10;5.70;;;5.10;;
13343;SDS011;6741;48.964;9.406;2022-08-14T03:51:37;5.50;;;5.00;;
13343;SDS011;6741;48.964;9.406;2022-08-14T03:54:05;4.50;;;4.20;;
13343;SDS011;6741;48.964;9.406;2022-08-14T03:56:34;4.57;;;4.27;;
13343;SDS011;6741;48.964;9.406;2022-08-14T03:59:02;5.17;;;4.77;;
13343;SDS011;6741;48.964;9.406;2022-08-14T04:01:35;5.10;;;4.70;;
13343;SDS011;6741;48.964;9.406;2022-08-14T04:04:05;4.90;;;4.53;;
13343;SDS011;6741;48.964;9.406;2022-08-14T04:06:32;8.20;;;4.60;;
13343;SDS011;6741;48.964;9.406;2022-08-14T04:09:01;5.23;;;4.73;;
13343;SDS011;6741;48.964;9.406;2022-08-14T04:11:29;5.50;;;5.00;;
13343;SDS011;6741;48.964;9.406;2022-08-14T04:13:57;5.00;;;4.70;;
13343;SDS011;6741;48.964;9.406;2022-08-14T04:16:25;6.03;;;5.40;;
13343;SDS011;6741;48.964;9.406;2022-08-14T04:18:53;5.47;;;4.97;;
13343;SDS011;6741;48.964;9.406;2022-08-14T04:21:22;5.57;;;5.17;;
13343;SDS011;6741;48.964;9.406;2022-08-14T04:23:52;5.57;;;5.13;;
13343;SDS011;6741;48.964;9.406;2022-08-14T04:26:22;5.67;;;5.27;;
13343;SDS011;6741;48.964;9.406;2022-08-14T04:28:51;5.83;;;5.30;;
13343;SDS011;6741;48.964;9.406;2022-08-14T04:31:21;6.10;;;5.50;;
13343;SDS011;6741;48.964;9.406;2022-08-14T04:33:49;6.20;;;5.70;;
13343;SDS011;6741;48.964;9.406;2022-08-14T04:36:16;5.67;;;5.23;;
13343;SDS011;6741;48.964;9.406;2022-08-14T04:38:44;5.73;;;5.33;;
13343;SDS011;6741;48.964;9.406;2022-08-14T04:41:28;5.73;;;5.33;;
13343;SDS011;6741;48.964;9.406;2022-08-14T04:44:11;5.97;;;5.43;;
13343;SDS011;6741;48.964;9.406;2022-08-14T04:46:40;5.80;;;5.40;;
13343;SDS011;6741;48.964;9.406;2022-08-14T04:49:29;6.23;;;5.70;;
13343;SDS011;6741;48.964;9.406;2022-08-14T04:51:55;6.80;;;6.30;;
13343;SDS011;6741;48.964;9.406;2022-08-14T04:54:22;5.97;;;5.57;;
13343;SDS011;6741;48.964;9.406;2022-08-14T04:56:50;6.23;;;5.73;;
13343;SDS011;6741;48.964;9.406;2022-08-14T04:59:19;5.83;;;5.43;;
13343;SDS011;6741;48.964;9.406;2022-08-14T05:01:47;6.00;;;5.60;;
13343;SDS011;6741;48.964;9.406;2022-08-14T05:04:15;5.83;;;5.43;;
13343;SDS011;6741;48.964;9.406;2022-08-14T05:06:42;5.03;;;4.67;;
13343;SDS011;6741;48.964;9.406;2022-08-14T05:09:09;5.40;;;4.90;;
13343;SDS011;6741;48.964;9.406;2022-08-14T05:11:36;4.93;;;4.53;;
13343;SDS011;6741;48.964;9.406;2022-08-14T05:14:03;5.70;;;5.30;;
13343;SDS011;6741;48.964;9.406;2022-08-14T05:16:30;6.37;;;5.00;;
13343;SDS011;6741;48.964;9.406;2022-08-14T05:18:58;5.60;;;5.17;;
13343;SDS011;6741;48.964;9.406;2022-08-14T05:21:25;7.03;;;6.53;;
13343;SDS011;6741;48.964;9.406;2022-08-14T05:23:53;6.00;;;5.53;;
13343;SDS011;6741;48.964;9.406;2022-08-14T05:26:20;6.13;;;5.63;;
13343;SDS011;6741;48.964;9.406;2022-08-14T05:28:47;5.80;;;5.33;;
13343;SDS011;6741;48.964;9.406;2022-08-14T05:31:15;5.87;;;5.37;;
13343;SDS011;6741;48.964;9.406;2022-08-14T05:33:42;5.77;;;5.37;;
13343;SDS011;6741;48.964;9.406;2022-08-14T05:36:12;6.70;;;6.20;;
13343;SDS011;6741;48.964;9.406;2022-08-14T05:38:40;5.70;;;5.30;;
13343;SDS011;6741;48.964;9.406;2022-08-14T05:41:09;5.73;;;5.33;;
13343;SDS011;6741;48.964;9.406;2022-08-14T05:43:37;6.13;;;5.67;;
13343;SDS011;6741;48.964;9.406;2022-08-14T05:46:05;6.67;;;5.57;;
13343;SDS011;6741;48.964;9.406;2022-08-14T05:48:34;6.87;;;6.27;;
13343;SDS011;6741;48.964;9.406;2022-08-14T05:51:02;5.72;;;5.22;;
13343;SDS011;6741;48.964;9.406;2022-08-14T05:53:30;6.10;;;5.50;;
13343;SDS011;6741;48.964;9.406;2022-08-14T05:55:57;6.07;;;5.63;;
13343;SDS011;6741;48.964;9.406;2022-08-14T05:58:24;5.20;;;4.70;;
13343;SDS011;6741;48.964;9.406;2022-08-14T06:00:52;5.38;;;4.97;;
13343;SDS011;6741;48.964;9.406;2022-08-14T06:03:20;6.07;;;5.57;;
13343;SDS011;6741;48.964;9.406;2022-08-14T06:05:48;5.95;;;5.35;;
13343;SDS011;6741;48.964;9.406;2022-08-14T06:08:17;6.32;;;5.82;;
13343;SDS011;6741;48.964;9.406;2022-08-14T06:10:46;6.18;;;5.68;;
13343;SDS011;6741;48.964;9.406;2022-08-14T06:13:14;6.15;;;5.65;;
13343;SDS011;6741;48.964;9.406;2022-08-14T06:15:42;6.75;;;6.07;;
13343;SDS011;6741;48.964;9.406;2022-08-14T06:18:10;6.43;;;5.93;;
13343;SDS011;6741;48.964;9.406;2022-08-14T06:20:37;6.18;;;5.68;;
13343;SDS011;6741;48.964;9.406;2022-08-14T06:23:04;6.07;;;5.57;;
13343;SDS011;6741;48.964;9.406;2022-08-14T06:25:31;9.75;;;7.00;;
13343;SDS011;6741;48.964;9.406;2022-08-14T06:28:00;6.65;;;5.97;;
13343;SDS011;6741;48.964;9.406;2022-08-14T06:30:28;7.93;;;6.35;;
13343;SDS011;6741;48.964;9.406;2022-08-14T06:32:57;6.68;;;6.03;;
13343;SDS011;6741;48.964;9.406;2022-08-14T06:35:23;6.10;;;5.53;;
13343;SDS011;6741;48.964;9.406;2022-08-14T06:37:52;6.30;;;5.82;;
13343;SDS011;6741;48.964;9.406;2022-08-14T06:40:21;6.30;;;5.90;;
13343;SDS011;6741;48.964;9.406;2022-08-14T06:42:49;6.47;;;5.38;;
13343;SDS011;6741;48.964;9.406;2022-08-14T06:45:17;6.10;;;5.63;;
13343;SDS011;6741;48.964;9.406;2022-08-14T06:47:45;6.28;;;5.00;;
13343;SDS011;6741;48.964;9.406;2022-08-14T06:50:15;5.95;;;5.50;;
13343;SDS011;6741;48.964;9.406;2022-08-14T06:52:43;5.10;;;4.70;;
13343;SDS011;6741;48.964;9.406;2022-08-14T06:55:11;4.88;;;4.47;;
13343;SDS011;6741;48.964;9.406;2022-08-14T06:57:41;5.32;;;4.82;;
13343;SDS011;6741;48.964;9.406;2022-08-14T07:00:10;4.65;;;4.35;;
13343;SDS011;6741;48.964;9.406;2022-08-14T07:02:41;4.47;;;4.07;;
13343;SDS011;6741;48.964;9.406;2022-08-14T07:05:26;4.57;;;4.28;;
13343;SDS011;6741;48.964;9.406;2022-08-14T07:08:12;4.68;;;4.38;;
13343;SDS011;6741;48.964;9.406;2022-08-14T07:10:42;6.80;;;3.92;;
13343;SDS011;6741;48.964;9.406;2022-08-14T07:13:09;4.10;;;3.80;;
13343;SDS011;6741;48.964;9.406;2022-08-14T07:15:37;4.05;;;3.75;;
13343;SDS011;6741;48.964;9.406;2022-08-14T07:18:06;4.07;;;3.78;;
13343;SDS011;6741;48.964;9.406;2022-08-14T07:20:34;4.20;;;3.78;;
13343;SDS011;6741;48.964;9.406;2022-08-14T07:23:02;3.80;;;3.50;;
13343;SDS011;6741;48.964;9.406;2022-08-14T07:25:30;3.90;;;3.60;;
13343;SDS011;6741;48.964;9.406;2022-08-14T07:27:57;3.92;;;3.70;;
13343;SDS011;6741;48.964;9.406;2022-08-14T07:30:24;4.35;;;4.05;;
13343;SDS011;6741;48.964;9.406;2022-08-14T07:32:51;4.13;;;3.83;;
13343;SDS011;6741;48.964;9.406;2022-08-14T07:35:20;3.85;;;3.55;;
13343;SDS011;6741;48.964;9.406;2022-08-14T07:37:47;4.38;;;3.95;;
13343;SDS011;6741;48.964;9.406;2022-08-14T07:40:14;4.28;;;3.97;;
13343;SDS011;6741;48.964;9.406;2022-08-14T07:42:42;4.18;;;3.88;;
13343;SDS011;6741;48.964;9.406;2022-08-14T07:45:13;4.28;;;3.80;;
13343;SDS011;6741;48.964;9.406;2022-08-14T07:47:41;4.55;;;3.83;;
13343;SDS011;6741;48.964;9.406;2022-08-14T07:50:11;3.33;;;3.13;;
13343;SDS011;6741;48.964;9.406;2022-08-14T07:52:41;3.75;;;3.55;;
13343;SDS011;6741;48.964;9.406;2022-08-14T07:55:10;3.72;;;3.20;;
13343;SDS011;6741;48.964;9.406;2022-08-14T07:57:38;8.30;;;4.38;;
13343;SDS011;6741;48.964;9.406;2022-08-14T08:00:07;3.67;;;3.42;;
13343;SDS011;6741;48.964;9.406;2022-08-14T08:02:38;3.67;;;3.17;;
13343;SDS011;6741;48.964;9.406;2022-08-14T08:05:06;3.38;;;3.17;;
13343;SDS011;6741;48.964;9.406;2022-08-14T08:07:35;3.30;;;3.10;;
13343;SDS011;6741;48.964;9.406;2022-08-14T08:10:06;5.20;;;3.40;;
13343;SDS011;6741;48.964;9.406;2022-08-14T08:12:49;3.28;;;2.97;;
13343;SDS011;6741;48.964;9.406;2022-08-14T08:15:18;2.90;;;2.70;;
13343;SDS011;6741;48.964;9.406;2022-08-14T08:17:46;2.90;;;2.60;;
13343;SDS011;6741;48.964;9.406;2022-08-14T08:20:16;3.30;;;3.08;;
13343;SDS011;6741;48.964;9.406;2022-08-14T08:22:44;3.45;;;3.15;;
13343;SDS011;6741;48.964;9.406;2022-08-14T08:25:12;4.30;;;2.70;;
13343;SDS011;6741;48.964;9.406;2022-08-14T08:27:39;3.15;;;2.90;;
13343;SDS011;6741;48.964;9.406;2022-08-14T08:30:07;2.90;;;2.70;;
13343;SDS011;6741;48.964;9.406;2022-08-14T08:32:39;2.67;;;2.47;;
13343;SDS011;6741;48.964;9.406;2022-08-14T08:35:08;2.45;;;2.35;;
13343;SDS011;6741;48.964;9.406;2022-08-14T08:37:41;2.92;;;2.60;;
13343;SDS011;6741;48.964;9.406;2022-08-14T08:40:09;3.13;;;2.92;;
13343;SDS011;6741;48.964;9.406;2022-08-14T08:42:38;3.22;;;3.03;;
13343;SDS011;6741;48.964;9.406;2022-08-14T08:45:07;3.55;;;3.22;;
13343;SDS011;6741;48.964;9.406;2022-08-14T08:47:37;4.53;;;4.22;;
13343;SDS011;6741;48.964;9.406;2022-08-14T08:50:14;3.03;;;2.83;;
13343;SDS011;6741;48.964;9.406;2022-08-14T08:52:51;2.70;;;2.50;;
13343;SDS011;6741;48.964;9.406;2022-08-14T08:55:26;2.58;;;2.47;;
13343;SDS011;6741;48.964;9.406;2022-08-14T08:57:56;2.90;;;2.70;;
13343;SDS011;6741;48.964;9.406;2022-08-14T09:00:25;4.85;;;4.55;;
13343;SDS011;6741;48.964;9.406;2022-08-14T09:02:57;4.45;;;4.15;;
13343;SDS011;6741;48.964;9.406;2022-08-14T09:05:27;2.03;;;1.92;;
13343;SDS011;6741;48.964;9.406;2022-08-14T09:08:07;2.47;;;2.38;;
13343;SDS011;6741;48.964;9.406;2022-08-14T09:10:38;2.47;;;2.38;;
13343;SDS011;6741;48.964;9.406;2022-08-14T09:13:08;2.35;;;2.25;;
13343;SDS011;6741;48.964;9.406;2022-08-14T09:15:37;5.18;;;2.53;;
13343;SDS011;6741;48.964;9.406;2022-08-14T09:18:06;2.40;;;2.30;;
13343;SDS011;6741;48.964;9.406;2022-08-14T09:20:34;4.47;;;2.28;;
13343;SDS011;6741;48.964;9.406;2022-08-14T09:23:03;2.53;;;2.30;;
13343;SDS011;6741;48.964;9.406;2022-08-14T09:25:31;3.72;;;3.05;;
13343;SDS011;6741;48.964;9.406;2022-08-14T09:27:59;2.55;;;2.38;;
13343;SDS011;6741;48.964;9.406;2022-08-14T09:30:28;3.70;;;2.58;;
13343;SDS011;6741;48.964;9.406;2022-08-14T09:33:10;3.05;;;2.20;;
13343;SDS011;6741;48.964;9.406;2022-08-14T09:38:53;2.90;;;2.70;;
13343;SDS011;6741;48.964;9.406;2022-08-14T09:41:32;3.47;;;2.95;;
13343;SDS011;6741;48.964;9.406;2022-08-14T09:44:18;3.15;;;2.85;;
13343;SDS011;6741;48.964;9.406;2022-08-14T09:46:56;3.53;;;3.28;;
13343;SDS011;6741;48.964;9.406;2022-08-14T09:49:30;3.47;;;3.17;;
13343;SDS011;6741;48.964;9.406;2022-08-14T09:52:04;3.50;;;3.20;;
13343;SDS011;6741;48.964;9.406;2022-08-14T09:54:38;3.40;;;2.85;;
13343;SDS011;6741;48.964;9.406;2022-08-14T09:57:07;2.92;;;2.72;;
13343;SDS011;6741;48.964;9.406;2022-08-14T09:59:38;5.25;;;2.90;;
13343;SDS011;6741;48.964;9.406;2022-08-14T10:02:18;3.35;;;3.05;;
13343;SDS011;6741;48.964;9.406;2022-08-14T10:04:57;3.08;;;2.85;;
13343;SDS011;6741;48.964;9.406;2022-08-14T10:07:29;3.17;;;2.90;;
13343;SDS011;6741;48.964;9.406;2022-08-14T10:09:57;3.75;;;3.00;;
13343;SDS011;6741;48.964;9.406;2022-08-14T10:12:26;3.20;;;3.00;;
13343;SDS011;6741;48.964;9.406;2022-08-14T10:15:12;3.08;;;2.88;;
13343;SDS011;6741;48.964;9.406;2022-08-14T10:17:42;3.13;;;2.85;;
13343;SDS011;6741;48.964;9.406;2022-08-14T10:20:10;3.22;;;2.92;;
13343;SDS011;6741;48.964;9.406;2022-08-14T10:22:38;4.47;;;2.70;;
13343;SDS011;6741;48.964;9.406;2022-08-14T10:25:09;3.10;;;2.90;;
13343;SDS011;6741;48.964;9.406;2022-08-14T10:27:39;3.45;;;2.63;;
13343;SDS011;6741;48.964;9.406;2022-08-14T10:30:13;3.00;;;2.80;;
13343;SDS011;6741;48.964;9.406;2022-08-14T10:32:44;3.00;;;2.80;;
13343;SDS011;6741;48.964;9.406;2022-08-14T10:35:13;3.35;;;2.35;;
13343;SDS011;6741;48.964;9.406;2022-08-14T10:37:42;3.55;;;3.10;;
13343;SDS011;6741;48.964;9.406;2022-08-14T10:40:12;3.13;;;2.83;;
13343;SDS011;6741;48.964;9.406;2022-08-14T10:42:41;3.05;;;2.85;;
13343;SDS011;6741;48.964;9.406;2022-08-14T10:45:17;2.85;;;2.60;;
13343;SDS011;6741;48.964;9.406;2022-08-14T10:47:47;3.67;;;2.78;;
13343;SDS011;6741;48.964;9.406;2022-08-14T10:50:15;3.00;;;2.80;;
13343;SDS011;6741;48.964;9.406;2022-08-14T10:52:42;3.17;;;2.97;;
13343;SDS011;6741;48.964;9.406;2022-08-14T10:55:11;2.90;;;2.70;;
13343;SDS011;6741;48.964;9.406;2022-08-14T10:57:47;2.90;;;2.70;;
13343;SDS011;6741;48.964;9.406;2022-08-14T11:00:16;3.17;;;2.88;;
13343;SDS011;6741;48.964;9.406;2022-08-14T11:02:55;3.35;;;3.13;;
13343;SDS011;6741;48.964;9.406;2022-08-14T11:05:23;3.38;;;3.08;;
13343;SDS011;6741;48.964;9.406;2022-08-14T11:07:55;3.03;;;2.83;;
13343;SDS011;6741;48.964;9.406;2022-08-14T11:10:26;2.97;;;2.78;;
13343;SDS011;6741;48.964;9.406;2022-08-14T11:13:05;4.70;;;3.20;;
13343;SDS011;6741;48.964;9.406;2022-08-14T11:15:32;3.30;;;3.10;;
13343;SDS011;6741;48.964;9.406;2022-08-14T11:18:01;3.00;;;2.80;;
13343;SDS011;6741;48.964;9.406;2022-08-14T11:20:29;5.70;;;3.17;;
13343;SDS011;6741;48.964;9.406;2022-08-14T11:22:57;5.75;;;3.50;;
13343;SDS011;6741;48.964;9.406;2022-08-14T11:25:28;3.05;;;2.85;;
13343;SDS011;6741;48.964;9.406;2022-08-14T11:27:57;2.70;;;2.60;;
13343;SDS011;6741;48.964;9.406;2022-08-14T11:30:25;3.30;;;3.10;;
13343;SDS011;6741;48.964;9.406;2022-08-14T11:32:54;3.33;;;3.13;;
13343;SDS011;6741;48.964;9.406;2022-08-14T11:35:25;3.40;;;3.10;;
13343;SDS011;6741;48.964;9.406;2022-08-14T11:37:54;3.20;;;3.00;;
13343;SDS011;6741;48.964;9.406;2022-08-14T11:40:23;3.80;;;3.20;;
13343;SDS011;6741;48.964;9.406;2022-08-14T11:42:51;2.95;;;2.75;;
13343;SDS011;6741;48.964;9.406;2022-08-14T11:45:20;2.85;;;2.65;;
13343;SDS011;6741;48.964;9.406;2022-08-14T11:47:48;2.95;;;2.70;;
13343;SDS011;6741;48.964;9.406;2022-08-14T11:50:17;2.83;;;2.63;;
13343;SDS011;6741;48.964;9.406;2022-08-14T11:52:48;3.25;;;3.05;;
13343;SDS011;6741;48.964;9.406;2022-08-14T11:55:17;2.97;;;2.80;;
13343;SDS011;6741;48.964;9.406;2022-08-14T11:57:45;3.03;;;2.80;;
13343;SDS011;6741;48.964;9.406;2022-08-14T12:00:12;4.10;;;2.95;;
13343;SDS011;6741;48.964;9.406;2022-08-14T12:02:48;2.80;;;2.70;;
13343;SDS011;6741;48.964;9.406;2022-08-14T12:05:26;2.67;;;2.53;;
13343;SDS011;6741;48.964;9.406;2022-08-14T12:07:56;2.97;;;2.78;;
13343;SDS011;6741;48.964;9.406;2022-08-14T12:10:24;3.22;;;3.03;;
13343;SDS011;6741;48.964;9.406;2022-08-14T12:12:51;2.78;;;2.60;;
13343;SDS011;6741;48.964;9.406;2022-08-14T12:15:29;3.10;;;2.80;;
13343;SDS011;6741;48.964;9.406;2022-08-14T12:17:58;2.75;;;2.60;;
13343;SDS011;6741;48.964;9.406;2022-08-14T12:20:29;3.03;;;2.83;;
13343;SDS011;6741;48.964;9.406;2022-08-14T12:22:59;3.28;;;3.03;;
13343;SDS011;6741;48.964;9.406;2022-08-14T12:25:27;2.80;;;2.60;;
13343;SDS011;6741;48.964;9.406;2022-08-14T12:27:55;2.92;;;2.72;;
13343;SDS011;6741;48.964;9.406;2022-08-14T12:30:29;3.15;;;2.78;;
13343;SDS011;6741;48.964;9.406;2022-08-14T12:32:58;2.95;;;2.75;;
13343;SDS011;6741;48.964;9.406;2022-08-14T12:35:34;3.00;;;2.80;;
13343;SDS011;6741;48.964;9.406;2022-08-14T12:38:04;3.10;;;2.90;;
13343;SDS011;6741;48.964;9.406;2022-08-14T12:40:31;2.85;;;2.60;;
13343;SDS011;6741;48.964;9.406;2022-08-14T12:42:59;3.20;;;2.90;;
13343;SDS011;6741;48.964;9.406;2022-08-14T12:45:30;2.65;;;2.45;;
13343;SDS011;6741;48.964;9.406;2022-08-14T12:48:00;2.92;;;2.72;;
13343;SDS011;6741;48.964;9.406;2022-08-14T12:50:36;2.97;;;2.80;;
13343;SDS011;6741;48.964;9.406;2022-08-14T12:53:05;2.60;;;2.40;;
13343;SDS011;6741;48.964;9.406;2022-08-14T12:55:33;2.97;;;2.75;;
13343;SDS011;6741;48.964;9.406;2022-08-14T12:58:00;2.78;;;2.58;;
13343;SDS011;6741;48.964;9.406;2022-08-14T13:00:29;3.28;;;2.90;;
13343;SDS011;6741;48.964;9.406;2022-08-14T13:02:58;3.03;;;2.83;;
13343;SDS011;6741;48.964;9.406;2022-08-14T13:05:26;2.75;;;2.55;;
13343;SDS011;6741;48.964;9.406;2022-08-14T13:07:55;2.75;;;2.45;;
13343;SDS011;6741;48.964;9.406;2022-08-14T13:10:25;2.60;;;2.50;;
13343;SDS011;6741;48.964;9.406;2022-08-14T13:12:54;3.53;;;2.95;;
13343;SDS011;6741;48.964;9.406;2022-08-14T13:15:23;2.60;;;2.45;;
13343;SDS011;6741;48.964;9.406;2022-08-14T13:17:51;4.15;;;2.58;;
13343;SDS011;6741;48.964;9.406;2022-08-14T13:20:21;3.13;;;2.90;;
13343;SDS011;6741;48.964;9.406;2022-08-14T13:22:50;3.08;;;2.88;;
13343;SDS011;6741;48.964;9.406;2022-08-14T13:25:19;3.10;;;2.90;;
13343;SDS011;6741;48.964;9.406;2022-08-14T13:27:51;2.80;;;2.60;;
13343;SDS011;6741;48.964;9.406;2022-08-14T13:30:20;2.90;;;2.72;;
13343;SDS011;6741;48.964;9.406;2022-08-14T13:32:49;3.20;;;3.00;;
13343;SDS011;6741;48.964;9.406;2022-08-14T13:35:17;3.47;;;2.70;;
13343;SDS011;6741;48.964;9.406;2022-08-14T13:37:44;3.17;;;2.97;;
13343;SDS011;6741;48.964;9.406;2022-08-14T13:40:13;2.60;;;2.40;;
13343;SDS011;6741;48.964;9.406;2022-08-14T13:42:43;3.20;;;3.00;;
13343;SDS011;6741;48.964;9.406;2022-08-14T13:45:13;3.22;;;3.00;;
13343;SDS011;6741;48.964;9.406;2022-08-14T13:47:40;2.80;;;2.60;;
13343;SDS011;6741;48.964;9.406;2022-08-14T13:50:08;3.17;;;2.97;;
13343;SDS011;6741;48.964;9.406;2022-08-14T13:52:38;3.28;;;2.70;;
13343;SDS011;6741;48.964;9.406;2022-08-14T13:55:08;2.85;;;2.65;;
13343;SDS011;6741;48.964;9.406;2022-08-14T13:57:38;3.08;;;2.88;;
13343;SDS011;6741;48.964;9.406;2022-08-14T14:00:07;2.80;;;2.60;;
13343;SDS011;6741;48.964;9.406;2022-08-14T14:02:38;2.80;;;2.53;;
13343;SDS011;6741;48.964;9.406;2022-08-14T14:05:06;2.60;;;2.50;;
13343;SDS011;6741;48.964;9.406;2022-08-14T14:07:36;2.88;;;2.67;;
13343;SDS011;6741;48.964;9.406;2022-08-14T14:10:04;2.97;;;2.78;;
13343;SDS011;6741;48.964;9.406;2022-08-14T14:12:33;2.63;;;2.45;;
13343;SDS011;6741;48.964;9.406;2022-08-14T14:15:02;3.13;;;2.40;;
13343;SDS011;6741;48.964;9.406;2022-08-14T14:17:30;2.53;;;2.42;;
13343;SDS011;6741;48.964;9.406;2022-08-14T14:19:59;2.83;;;2.58;;
13343;SDS011;6741;48.964;9.406;2022-08-14T14:22:26;3.67;;;3.03;;
13343;SDS011;6741;48.964;9.406;2022-08-14T14:24:53;2.55;;;2.35;;
13343;SDS011;6741;48.964;9.406;2022-08-14T14:27:20;3.17;;;2.75;;
13343;SDS011;6741;48.964;9.406;2022-08-14T14:29:51;2.97;;;2.78;;
13343;SDS011;6741;48.964;9.406;2022-08-14T14:32:23;2.50;;;2.30;;
13343;SDS011;6741;48.964;9.406;2022-08-14T14:34:55;2.70;;;2.60;;
13343;SDS011;6741;48.964;9.406;2022-08-14T14:37:27;2.72;;;2.53;;
13343;SDS011;6741;48.964;9.406;2022-08-14T14:39:56;2.63;;;2.53;;
13343;SDS011;6741;48.964;9.406;2022-08-14T14:42:24;2.30;;;2.20;;
13343;SDS011;6741;48.964;9.406;2022-08-14T14:44:55;2.67;;;2.47;;
13343;SDS011;6741;48.964;9.406;2022-08-14T14:47:29;2.50;;;2.30;;
13343;SDS011;6741;48.964;9.406;2022-08-14T14:50:00;2.35;;;2.25;;
13343;SDS011;6741;48.964;9.406;2022-08-14T14:52:28;2.55;;;2.35;;
13343;SDS011;6741;48.964;9.406;2022-08-14T14:54:56;2.55;;;2.40;;
13343;SDS011;6741;48.964;9.406;2022-08-14T14:57:24;2.20;;;2.10;;
13343;SDS011;6741;48.964;9.406;2022-08-14T14:59:53;2.30;;;2.20;;
13343;SDS011;6741;48.964;9.406;2022-08-14T15:02:24;2.63;;;2.35;;
13343;SDS011;6741;48.964;9.406;2022-08-14T15:04:57;2.30;;;2.13;;
13343;SDS011;6741;48.964;9.406;2022-08-14T15:07:25;2.63;;;2.53;;
13343;SDS011;6741;48.964;9.406;2022-08-14T15:09:52;2.72;;;2.50;;
13343;SDS011;6741;48.964;9.406;2022-08-14T15:12:19;2.80;;;2.60;;
13343;SDS011;6741;48.964;9.406;2022-08-14T15:14:47;2.63;;;2.42;;
13343;SDS011;6741;48.964;9.406;2022-08-14T15:17:15;2.70;;;2.40;;